Time;durP1;ratioP1;P1;durP2;ratioP2;P2;SDS_P1;SDS_P2;PMS_P1;PMS_P2;Temp;Humidity;BMP_temperature;BMP_pressure;BME280_temperature;BME280_humidity;BME280_pressure;Samples;Min_cycle;Max_cycle;Signal;HPM_P1;HPM_P2
2022/01/31 00:01:43;;;;;;;18.90;3.43;;;;;;;1.44;90.48;100105.95;3558911;81;98956;-85
2022/01/31 00:06:48;;;;;;;17.03;3.80;;;;;;;1.41;90.64;100115.27;3560636;80;99134;-86
2022/01/31 00:11:56;;;;;;;17.63;3.63;;;;;;;1.35;90.94;100111.95;3591564;78;98641;-87
2022/01/31 00:16:50;;;;;;;19.48;4.42;;;;;;;1.31;91.09;100120.48;3555048;81;99171;-86
2022/01/31 00:21:51;;;;;;;21.13;3.17;;;;;;;1.26;91.25;100114.46;3557783;80;32362;-85
2022/01/31 00:26:52;;;;;;;14.87;3.60;;;;;;;1.21;91.37;100103.21;3565847;79;98927;-85
2022/01/31 00:31:53;;;;;;;18.63;3.07;;;;;;;1.17;91.48;100093.34;3563639;80;98460;-85
2022/01/31 00:36:54;;;;;;;15.63;3.13;;;;;;;1.12;91.61;100090.80;3561936;81;99091;-85
2022/01/31 00:41:55;;;;;;;21.23;4.70;;;;;;;1.08;91.77;100084.44;3562161;81;99346;-86
2022/01/31 00:47:04;;;;;;;22.57;4.30;;;;;;;1.01;91.91;100069.23;3559163;81;98996;-85
2022/01/31 00:52:00;;;;;;;18.43;3.90;;;;;;;0.97;91.97;100060.16;3561596;81;32548;-86
2022/01/31 00:57:01;;;;;;;25.62;3.98;;;;;;;0.91;92.13;100062.25;3542083;81;99251;-87
2022/01/31 01:02:03;;;;;;;17.67;4.00;;;;;;;0.87;92.28;100062.65;3555421;81;98945;-87
2022/01/31 01:07:04;;;;;;;15.72;3.90;;;;;;;0.82;92.34;100069.59;3593964;81;98973;-85
2022/01/31 01:12:06;;;;;;;18.03;3.37;;;;;;;0.80;92.41;100075.09;3544794;82;98696;-87
2022/01/31 01:17:07;;;;;;;28.62;4.22;;;;;;;0.73;92.65;100067.44;3522640;82;98615;-86
2022/01/31 01:22:08;;;;;;;21.55;4.17;;;;;;;0.69;92.76;100058.39;3533445;82;34804;-86
2022/01/31 01:27:10;;;;;;;17.17;3.60;;;;;;;0.65;92.92;100045.78;3524396;81;98876;-85
2022/01/31 01:32:11;;;;;;;26.13;5.13;;;;;;;0.59;93.07;100038.95;3563059;80;98720;-87
2022/01/31 01:37:12;;;;;;;15.63;3.20;;;;;;;0.55;93.23;100038.02;3545810;82;98666;-88
2022/01/31 01:42:13;;;;;;;18.60;4.37;;;;;;;0.53;93.40;100028.05;3556921;82;98687;-87
2022/01/31 01:47:25;;;;;;;22.60;5.00;;;;;;;0.53;93.43;100021.28;3548194;82;98771;-89
2022/01/31 01:52:26;;;;;;;25.20;5.08;;;;;;;0.50;93.61;100022.72;3543720;80;98788;-87
2022/01/31 01:57:28;;;;;;;21.20;3.70;;;;;;;0.50;93.71;100017.88;3524499;81;98275;-86
2022/01/31 02:02:28;;;;;;;26.50;4.67;;;;;;;0.52;93.59;100016.98;3517528;82;98490;-88
2022/01/31 02:07:29;;;;;;;17.60;3.50;;;;;;;0.53;93.62;100007.75;3499787;82;99153;-87
2022/01/31 02:12:46;;;;;;;14.53;3.70;;;;;;;0.54;93.59;99991.73;3504111;82;99170;-86
2022/01/31 02:17:46;;;;;;;23.35;3.50;;;;;;;0.53;93.59;99985.54;3514539;82;98636;-88
2022/01/31 02:22:49;;;;;;;21.63;4.27;;;;;;;0.53;93.42;99973.36;3514108;81;98520;-88
2022/01/31 02:27:50;;;;;;;21.30;4.58;;;;;;;0.54;93.37;99957.89;3519745;82;98282;-87
2022/01/31 02:32:51;;;;;;;18.67;3.73;;;;;;;0.51;93.59;99949.08;3529641;82;98343;-87
2022/01/31 02:37:51;;;;;;;18.37;3.27;;;;;;;0.49;93.46;99949.39;3526302;81;98425;-87
2022/01/31 02:42:52;;;;;;;22.13;4.03;;;;;;;0.48;93.43;99940.23;3520500;82;99023;-89
2022/01/31 02:47:57;;;;;;;23.38;4.92;;;;;;;0.49;93.34;99939.11;3530777;81;98493;-87
2022/01/31 02:53:10;;;;;;;17.23;3.03;;;;;;;0.51;93.23;99928.77;3519868;82;99029;-88
2022/01/31 02:58:02;;;;;;;15.07;3.10;;;;;;;0.52;93.35;99923.59;3527011;82;98446;-88
2022/01/31 03:03:05;;;;;;;19.23;3.20;;;;;;;0.53;93.15;99907.03;3525117;82;98739;-89
2022/01/31 03:08:07;;;;;;;16.17;3.00;;;;;;;0.54;93.10;99894.27;3514600;82;98944;-88
2022/01/31 03:13:08;;;;;;;21.45;2.80;;;;;;;0.55;92.95;99884.48;3503145;83;98950;-87
2022/01/31 03:18:09;;;;;;;21.53;3.73;;;;;;;0.56;92.99;99879.30;3497435;82;98887;-87
2022/01/31 03:23:11;;;;;;;14.77;3.60;;;;;;;0.57;93.03;99871.44;3490184;81;98565;-87
2022/01/31 03:28:12;;;;;;;24.67;4.97;;;;;;;0.58;92.94;99869.50;3500868;82;98727;-87
2022/01/31 03:33:13;;;;;;;19.85;3.15;;;;;;;0.59;93.00;99853.48;3507760;82;98201;-88
2022/01/31 03:38:14;;;;;;;13.13;2.53;;;;;;;0.58;92.97;99843.78;3492391;82;98704;-86
2022/01/31 03:43:15;;;;;;;14.63;2.80;;;;;;;0.58;93.05;99837.82;3502314;81;98832;-87
2022/01/31 03:48:16;;;;;;;18.83;4.57;;;;;;;0.59;93.06;99832.64;3501119;82;98461;-88
2022/01/31 03:53:16;;;;;;;20.23;3.23;;;;;;;0.58;93.14;99817.52;3506940;82;98517;-88
2022/01/31 03:58:18;;;;;;;20.03;4.10;;;;;;;0.59;93.11;99814.23;3497851;83;98056;-90
2022/01/31 04:03:19;;;;;;;15.90;2.50;;;;;;;0.58;92.98;99799.11;3508008;83;98175;-89
2022/01/31 04:08:20;;;;;;;16.75;3.05;;;;;;;0.59;92.70;99797.44;3500657;81;98432;-90
2022/01/31 04:13:21;;;;;;;13.90;2.30;;;;;;;0.60;92.74;99784.71;3510346;82;98947;-88
2022/01/31 04:18:22;;;;;;;18.67;2.75;;;;;;;0.59;92.80;99787.96;3496341;83;98919;-89
2022/01/31 04:23:23;;;;;;;15.10;2.93;;;;;;;0.59;92.75;99777.69;3506019;82;99056;-89
2022/01/31 04:28:30;;;;;;;15.70;2.80;;;;;;;0.60;92.55;99770.59;3496753;83;98907;-87
2022/01/31 04:33:28;;;;;;;16.35;3.50;;;;;;;0.61;92.52;99764.63;3501714;83;32963;-88
2022/01/31 04:38:29;;;;;;;20.25;3.77;;;;;;;0.60;92.43;99761.70;3507995;81;98376;-88
2022/01/31 04:43:32;;;;;;;13.07;2.53;;;;;;;0.60;92.55;99763.83;3506506;82;99108;-89
2022/01/31 04:48:34;;;;;;;34.53;9.27;;;;;;;0.60;92.44;99757.63;3500281;83;98954;-91
2022/01/31 04:53:35;;;;;;;46.45;13.95;;;;;;;0.59;92.35;99751.96;3490291;81;98918;-90
2022/01/31 04:58:36;;;;;;;23.73;3.93;;;;;;;0.59;92.69;99746.55;3495238;83;99233;-88
2022/01/31 05:03:37;;;;;;;37.10;8.30;;;;;;;0.60;92.33;99724.56;3502593;83;25790;-91
2022/01/31 05:08:39;;;;;;;27.90;6.13;;;;;;;0.51;92.40;99713.56;3495377;83;98649;-89
2022/01/31 05:13:40;;;;;;;20.23;3.90;;;;;;;0.51;92.40;99713.56;3540775;81;98913;-89
2022/01/31 05:18:41;;;;;;;21.17;5.93;;;;;;;0.63;92.46;99723.92;3555429;82;98431;-89
2022/01/31 05:23:42;;;;;;;22.20;5.27;;;;;;;0.66;92.50;99715.70;3528382;82;98511;-92
2022/01/31 05:28:43;;;;;;;18.10;4.53;;;;;;;0.69;92.51;99706.91;3517705;81;98781;-87
2022/01/31 05:33:44;;;;;;;26.77;4.60;;;;;;;0.70;92.62;99693.05;3527598;82;26090;-89
2022/01/31 05:38:45;;;;;;;19.87;4.37;;;;;;;0.71;92.60;99687.86;3520211;82;98373;-88
2022/01/31 05:43:47;;;;;;;23.70;5.03;;;;;;;0.75;92.53;99681.22;3535907;82;98710;-87
2022/01/31 05:48:48;;;;;;;19.13;3.67;;;;;;;0.77;92.56;99672.22;3518796;82;98907;-87
2022/01/31 05:53:50;;;;;;;25.83;5.57;;;;;;;0.80;92.60;99668.84;3521665;82;98447;-88
2022/01/31 05:58:51;;;;;;;28.20;4.95;;;;;;;0.80;92.64;99666.94;3514140;82;98842;-89
2022/01/31 06:03:52;;;;;;;17.93;3.73;;;;;;;0.81;92.79;99659.03;3524741;82;26790;-88
2022/01/31 06:08:53;;;;;;;17.53;3.97;;;;;;;0.80;92.90;99653.39;3517111;82;98835;-88
2022/01/31 06:13:56;;;;;;;22.17;4.03;;;;;;;0.83;93.05;99654.64;3549953;81;98785;-88
2022/01/31 06:18:59;;;;;;;25.30;5.57;;;;;;;0.82;93.05;99645.72;3525538;82;98474;-89
2022/01/31 06:24:00;;;;;;;19.42;4.05;;;;;;;0.82;93.00;99639.53;3569959;81;99059;-88
2022/01/31 06:29:01;;;;;;;20.83;5.67;;;;;;;0.81;93.13;99634.66;3569337;81;99037;-87
2022/01/31 06:34:02;;;;;;;11.75;3.10;;;;;;;0.81;93.14;99632.50;3563235;80;26405;-87
2022/01/31 06:39:04;;;;;;;14.67;4.03;;;;;;;0.79;93.34;99621.22;3513971;80;98664;-87
2022/01/31 06:44:05;;;;;;;15.70;3.57;;;;;;;0.75;93.50;99602.69;3549905;81;98723;-88
2022/01/31 06:49:06;;;;;;;17.10;4.70;;;;;;;0.71;93.59;99601.21;3576550;80;98871;-88
2022/01/31 06:54:08;;;;;;;15.50;6.23;;;;;;;0.73;93.83;99588.70;3531894;81;99083;-87
2022/01/31 06:59:08;;;;;;;17.07;4.40;;;;;;;0.75;93.66;99587.25;3545148;81;98545;-88
2022/01/31 07:04:11;;;;;;;21.13;4.10;;;;;;;0.77;94.05;99586.92;3547239;80;25890;-87
2022/01/31 07:09:12;;;;;;;23.10;4.67;;;;;;;0.71;94.04;99574.13;3539477;80;98591;-88
2022/01/31 07:14:31;;;;;;;24.63;7.03;;;;;;;0.75;94.07;99566.13;3543434;80;98392;-86
2022/01/31 07:19:35;;;;;;;25.85;7.42;;;;;;;0.78;94.15;99552.72;3524439;80;99008;-89
2022/01/31 07:29:37;;;;;;;18.77;6.17;;;;;;;0.85;94.40;99542.70;3531470;81;98887;-88
2022/01/31 07:34:40;;;;;;;18.40;6.93;;;;;;;0.89;94.51;99540.34;3543308;80;98523;-89
2022/01/31 07:39:42;;;;;;;20.75;5.78;;;;;;;0.93;94.57;99531.78;3541858;81;98708;-89
2022/01/31 07:44:44;;;;;;;18.23;5.42;;;;;;;0.97;94.65;99534.05;3507418;81;98237;-90
2022/01/31 07:49:45;;;;;;;23.90;6.67;;;;;;;1.02;94.79;99526.27;3535527;80;98537;-88
2022/01/31 07:54:46;;;;;;;27.37;8.03;;;;;;;1.09;94.78;99521.11;3514737;81;98530;-90
2022/01/31 07:59:47;;;;;;;23.77;6.97;;;;;;;1.14;94.88;99517.60;3536919;81;98513;-94
2022/01/31 08:04:48;;;;;;;26.50;7.60;;;;;;;1.19;94.93;99517.38;3540928;81;98188;-91
2022/01/31 08:09:49;;;;;;;22.83;5.03;;;;;;;1.26;95.08;99515.48;3544768;81;98463;-91
2022/01/31 08:14:50;;;;;;;20.93;4.67;;;;;;;1.33;95.29;99512.99;3549700;81;98738;-90
2022/01/31 08:19:51;;;;;;;23.97;4.90;;;;;;;1.38;95.31;99518.20;3531260;80;98301;-93
2022/01/31 08:24:52;;;;;;;22.33;4.97;;;;;;;1.45;95.28;99512.44;3540514;81;98518;-89
2022/01/31 08:29:59;;;;;;;21.33;4.47;;;;;;;1.51;95.35;99492.66;3537611;81;98574;-92
2022/01/31 08:40:17;;;;;;;23.42;5.42;;;;;;;1.65;95.38;99480.33;3538859;81;98124;-89
2022/01/31 08:45:18;;;;;;;30.23;5.33;;;;;;;1.70;95.39;99471.96;3548526;81;98614;-91
2022/01/31 08:50:23;;;;;;;26.70;5.47;;;;;;;1.77;95.49;99464.06;3541990;81;98091;-92
2022/01/31 08:55:24;;;;;;;27.40;6.30;;;;;;;1.82;95.61;99463.83;3554603;80;98886;-89
2022/01/31 09:00:35;;;;;;;20.35;5.50;;;;;;;1.89;95.77;99461.88;3541654;80;98918;-88
2022/01/31 09:05:37;;;;;;;38.17;10.43;;;;;;;1.95;95.88;99440.15;3546300;80;98965;-87
2022/01/31 09:10:39;;;;;;;24.17;6.87;;;;;;;2.02;95.88;99435.72;3546505;80;98698;-87
2022/01/31 09:15:41;;;;;;;31.20;10.32;;;;;;;2.10;95.89;99437.52;3488017;83;32657;-87
2022/01/31 09:20:42;;;;;;;27.73;6.33;;;;;;;2.19;95.94;99436.02;3480805;82;98541;-89
2022/01/31 09:25:51;;;;;;;28.80;6.17;;;;;;;2.26;95.86;99434.84;3478262;82;98578;-92
2022/01/31 09:30:52;;;;;;;28.92;6.20;;;;;;;2.32;95.95;99436.17;3466194;82;98808;-90
2022/01/31 09:35:53;;;;;;;27.37;5.85;;;;;;;2.36;95.82;99429.69;3459869;83;98981;-91
2022/01/31 09:40:55;;;;;;;25.10;5.77;;;;;;;2.42;96.11;99425.62;3479319;83;98541;-90
2022/01/31 09:51:12;;;;;;;26.95;5.15;;;;;;;2.52;95.68;99412.09;3426281;83;98336;-90
2022/01/31 09:56:18;;;;;;;24.92;5.65;;;;;;;2.55;95.70;99418.17;3435331;82;97504;-89
2022/01/31 10:01:31;;;;;;;23.83;5.92;;;;;;;2.59;95.63;99413.08;3463690;83;98415;-89
2022/01/31 10:06:40;;;;;;;26.20;6.70;;;;;;;2.64;95.64;99412.02;3489987;83;97607;-89
2022/01/31 10:12:08;;;;;;;28.42;7.40;;;;;;;2.70;95.62;99401.11;3500252;82;98538;-90
2022/01/31 10:17:44;;;;;;;25.12;7.20;;;;;;;2.75;95.47;99400.30;3503657;81;98210;-90
2022/01/31 10:22:47;;;;;;;35.17;5.80;;;;;;;2.80;95.49;99395.16;3515295;82;99023;-90
2022/01/31 10:27:57;;;;;;;27.77;7.72;;;;;;;2.82;95.14;99388.80;3481465;81;98552;-91
2022/01/31 10:32:58;;;;;;;38.02;9.25;;;;;;;2.86;95.13;99386.41;3481987;81;98615;-92
2022/01/31 10:38:09;;;;;;;26.90;6.87;;;;;;;2.93;95.26;99385.22;3499605;81;98689;-90
2022/01/31 10:43:27;;;;;;;25.35;6.50;;;;;;;3.02;95.39;99380.40;3510488;82;99215;-91
2022/01/31 10:53:52;;;;;;;29.35;8.28;;;;;;;3.12;95.04;99378.47;3504634;81;98736;-89
2022/01/31 10:59:00;;;;;;;29.57;8.55;;;;;;;3.18;95.18;99369.49;3508252;82;98561;-89
2022/01/31 11:04:06;;;;;;;24.72;6.53;;;;;;;3.26;95.11;99373.38;3494663;82;32219;-88
2022/01/31 11:09:11;;;;;;;31.67;8.03;;;;;;;3.33;94.64;99368.09;3430312;82;98532;-90
2022/01/31 11:14:14;;;;;;;22.77;6.17;;;;;;;3.40;94.55;99362.03;3477523;82;97585;-90
2022/01/31 11:19:22;;;;;;;23.12;7.55;;;;;;;3.46;94.11;99359.25;3419057;83;98869;-90
2022/01/31 11:24:27;;;;;;;26.15;6.42;;;;;;;3.53;93.83;99357.48;3452783;83;99020;-88
2022/01/31 11:29:27;;;;;;;39.60;9.13;;;;;;;3.56;93.94;99358.70;3425720;83;98999;-89
2022/01/31 11:34:31;;;;;;;31.75;8.78;;;;;;;3.57;94.16;99352.91;3465980;83;32856;-89
2022/01/31 11:39:32;;;;;;;28.27;8.25;;;;;;;3.62;94.19;99356.70;3427313;83;98627;-89
2022/01/31 11:45:10;;;;;;;;;;;;;;;;;;;;;
2022/01/31 11:50:08;;;;;;;26.57;6.87;;;;;;;3.81;93.73;99352.63;3455086;82;98751;-88
2022/01/31 11:55:14;;;;;;;27.75;8.80;;;;;;;3.82;93.38;99340.59;3511921;82;97682;-89
2022/01/31 12:00:19;;;;;;;28.75;8.78;;;;;;;3.90;93.51;99338.23;3462788;82;98978;-88
2022/01/31 12:05:30;;;;;;;37.38;8.00;;;;;;;3.96;93.41;99338.72;3505228;81;98850;-89
2022/01/31 12:10:47;;;;;;;49.18;17.02;;;;;;;4.02;92.97;99340.80;3464515;82;98328;-89
2022/01/31 12:26:38;;;;;;;38.20;8.08;;;;;;;4.15;92.98;99319.06;3501721;81;98336;-91
2022/01/31 12:31:47;;;;;;;30.60;8.30;;;;;;;4.20;92.72;99317.41;3493936;82;98531;-88
2022/01/31 12:36:53;;;;;;;26.75;8.23;;;;;;;4.16;92.69;99305.66;3484168;82;99022;-93
2022/01/31 12:42:03;;;;;;;25.08;7.25;;;;;;;4.17;92.59;99314.06;3485016;81;98941;-92
2022/01/31 12:47:20;;;;;;;33.63;10.70;;;;;;;4.08;92.80;99312.14;3481513;82;98789;-93
2022/01/31 12:52:30;;;;;;;34.53;11.22;;;;;;;4.13;93.41;99318.66;3497362;82;32700;-92
2022/01/31 12:57:30;;;;;;;35.80;10.10;;;;;;;4.18;93.75;99320.28;3484496;82;98699;-92
2022/01/31 13:02:32;;;;;;;46.33;9.20;;;;;;;4.19;93.51;99330.82;3500463;82;98582;-96
2022/01/31 13:08:02;;;;;;;34.92;9.25;;;;;;;4.12;93.66;99333.42;3488821;81;99321;-92
2022/01/31 13:12:44;;;;;;;37.63;10.80;;;;;;;3.98;93.89;99330.41;3466562;81;98821;-91
2022/01/31 13:17:49;;;;;;;33.58;11.10;;;;;;;3.90;94.13;99319.19;3471185;82;99201;-91
2022/01/31 13:22:52;;;;;;;36.85;10.48;;;;;;;3.86;94.65;99318.32;3493022;82;32265;-90
2022/01/31 13:27:55;;;;;;;43.20;12.97;;;;;;;3.77;95.11;99316.97;3502153;82;98825;-89
2022/01/31 13:32:56;;;;;;;31.10;10.85;;;;;;;3.77;95.39;99318.33;3509259;81;98532;-89
2022/01/31 13:38:07;;;;;;;22.70;8.25;;;;;;;3.77;95.43;99314.25;3492998;81;99136;-89
2022/01/31 13:43:26;;;;;;;21.20;7.75;;;;;;;3.72;95.75;99325.42;3498972;82;98921;-86
2022/01/31 13:49:29;;;;;;;36.55;8.83;;;;;;;3.67;95.96;99329.20;3490596;82;98927;-90
2022/01/31 13:53:50;;;;;;;29.25;10.20;;;;;;;3.69;96.21;99330.20;3475094;82;98573;-89
2022/01/31 13:59:05;;;;;;;34.80;10.17;;;;;;;3.64;96.13;99323.13;3496463;82;98803;-89
2022/01/31 14:04:06;;;;;;;27.02;9.08;;;;;;;3.58;96.45;99325.11;3503133;82;98525;-89
2022/01/31 14:09:11;;;;;;;31.60;10.97;;;;;;;3.52;96.57;99324.63;3499923;82;98711;-90
2022/01/31 14:14:14;;;;;;;30.80;10.47;;;;;;;3.54;96.62;99320.97;3504189;82;98891;-90
2022/01/31 14:19:17;;;;;;;22.65;8.60;;;;;;;3.55;96.39;99327.98;3501364;82;99034;-91
2022/01/31 14:24:19;;;;;;;26.10;9.83;;;;;;;3.51;96.55;99324.98;3493144;80;98945;-90
2022/01/31 14:29:20;;;;;;;24.80;8.88;;;;;;;3.43;96.74;99331.39;3480147;83;98951;-90
2022/01/31 14:34:24;;;;;;;29.40;11.47;;;;;;;3.36;96.83;99336.13;3532064;82;26284;-90
2022/01/31 14:50:07;;;;;;;32.45;12.68;;;;;;;3.28;96.79;99337.69;3474468;82;98737;-89
2022/01/31 14:55:12;;;;;;;37.53;25.60;;;;;;;3.21;96.79;99340.22;3505826;82;99211;-91
2022/01/31 15:00:17;;;;;;;33.48;15.45;;;;;;;3.14;96.80;99342.23;3490032;82;99005;-91
2022/01/31 15:05:21;;;;;;;31.17;14.35;;;;;;;3.06;96.85;99354.06;3496770;83;32393;-91
2022/01/31 15:10:23;;;;;;;29.95;14.33;;;;;;;3.02;96.82;99355.94;3475271;81;98443;-90
2022/01/31 15:15:27;;;;;;;27.47;10.70;;;;;;;2.93;96.75;99355.32;3494542;81;97710;-91
2022/01/31 15:20:28;;;;;;;25.90;10.45;;;;;;;2.84;96.60;99353.34;3489727;82;98606;-90
2022/01/31 15:25:31;;;;;;;25.40;10.50;;;;;;;2.71;96.73;99358.66;3458898;82;98693;-90
2022/01/31 15:30:33;;;;;;;29.87;12.75;;;;;;;2.60;97.15;99358.17;3491285;82;99141;-88
2022/01/31 15:35:34;;;;;;;30.20;10.90;;;;;;;2.55;97.26;99357.06;3491577;81;99267;-88
2022/01/31 15:40:35;;;;;;;32.93;12.60;;;;;;;2.48;97.58;99366.40;3476757;82;98353;-89
2022/01/31 15:45:37;;;;;;;26.17;10.00;;;;;;;2.41;97.81;99374.38;3493594;82;98490;-88
2022/01/31 15:50:38;;;;;;;27.40;12.45;;;;;;;2.38;97.99;99377.77;3470725;82;98911;-90
2022/01/31 15:55:47;;;;;;;25.00;10.73;;;;;;;2.33;97.76;99384.81;3469632;81;99005;-88
2022/01/31 16:00:51;;;;;;;22.13;10.73;;;;;;;2.25;97.88;99386.54;3483218;82;98683;-88
2022/01/31 16:05:52;;;;;;;31.45;12.07;;;;;;;2.23;97.92;99396.16;3511116;81;99088;-86
2022/01/31 16:10:55;;;;;;;26.63;10.80;;;;;;;2.17;98.28;99403.78;3487666;82;98179;-87
2022/01/31 16:15:56;;;;;;;33.30;13.50;;;;;;;2.14;98.52;99404.45;3519454;81;99002;-87
2022/01/31 16:20:57;;;;;;;36.10;19.10;;;;;;;2.09;98.69;99403.34;3498581;82;99067;-86
2022/01/31 16:25:58;;;;;;;32.17;15.07;;;;;;;2.06;98.64;99421.69;3521127;81;99067;-86
2022/01/31 16:31:00;;;;;;;32.50;13.20;;;;;;;2.02;98.90;99428.16;3509714;81;98647;-87
2022/01/31 16:36:02;;;;;;;21.33;9.40;;;;;;;1.92;99.15;99440.84;3572242;81;98589;-86
2022/01/31 16:41:04;;;;;;;25.60;9.55;;;;;;;1.89;99.18;99432.83;3572538;81;98399;-87
2022/01/31 16:46:05;;;;;;;20.37;8.00;;;;;;;1.86;99.09;99454.43;3564414;81;98318;-86
2022/01/31 16:51:06;;;;;;;23.10;9.20;;;;;;;1.80;99.13;99461.23;3572700;81;98197;-86
2022/01/31 16:56:07;;;;;;;27.17;11.13;;;;;;;1.78;99.19;99468.34;3578466;81;98896;-86
2022/01/31 17:01:08;;;;;;;32.77;14.67;;;;;;;1.72;99.24;99474.34;3539153;81;98938;-87
2022/01/31 17:06:09;;;;;;;26.47;12.03;;;;;;;1.65;99.48;99472.19;3573207;79;99080;-88
2022/01/31 17:11:10;;;;;;;26.83;12.20;;;;;;;1.60;99.62;99476.48;3578308;81;98270;-89
2022/01/31 17:16:12;;;;;;;28.13;13.20;;;;;;;1.60;99.73;99485.20;3558179;81;98904;-88
2022/01/31 17:21:13;;;;;;;31.47;14.67;;;;;;;1.50;99.80;99469.39;3545745;80;99101;-86
2022/01/31 17:26:14;;;;;;;31.30;15.70;;;;;;;1.58;99.96;99488.25;3553981;81;99031;-87
2022/01/31 17:31:15;;;;;;;33.07;13.90;;;;;;;1.55;100.00;99503.05;3548900;81;99066;-88
2022/01/31 17:36:16;;;;;;;33.97;15.83;;;;;;;1.53;100.00;99506.69;3535924;81;98800;-87
2022/01/31 17:41:19;;;;;;;42.53;15.87;;;;;;;1.51;100.00;99498.88;3539204;80;98680;-87
2022/01/31 17:46:20;;;;;;;38.50;14.93;;;;;;;1.51;100.00;99507.56;3542149;81;99300;-88
2022/01/31 17:51:22;;;;;;;32.27;14.83;;;;;;;1.49;100.00;99515.27;3535352;81;99382;-88
2022/01/31 17:56:24;;;;;;;36.33;19.57;;;;;;;1.48;100.00;99513.10;3548748;81;99253;-89
2022/01/31 18:01:25;;;;;;;38.60;19.97;;;;;;;1.44;100.00;99519.55;3533653;81;99168;-88
2022/01/31 18:06:26;;;;;;;39.73;18.50;;;;;;;1.35;100.00;99507.46;3515399;81;99479;-88
2022/01/31 18:11:27;;;;;;;40.20;20.13;;;;;;;1.26;99.96;99527.67;3541839;81;98762;-89
2022/01/31 18:16:28;;;;;;;35.07;18.87;;;;;;;1.11;99.95;99541.88;3543053;81;98531;-88
2022/01/31 18:21:29;;;;;;;36.30;17.20;;;;;;;0.99;100.00;99542.63;3543713;80;98765;-90
2022/01/31 18:26:33;;;;;;;36.63;16.80;;;;;;;0.90;100.00;99546.55;3545511;80;99340;-90
2022/01/31 18:31:34;;;;;;;35.28;14.58;;;;;;;0.82;100.00;99554.22;3541384;81;99516;-89
2022/01/31 18:36:35;;;;;;;33.50;15.07;;;;;;;0.75;100.00;99556.66;3549455;81;98931;-90
2022/01/31 18:41:36;;;;;;;38.23;17.60;;;;;;;0.71;100.00;99570.66;3544877;81;98305;-90
2022/01/31 18:46:40;;;;;;;42.33;22.17;;;;;;;0.70;100.00;99562.27;3539874;81;98544;-89
2022/01/31 18:51:42;;;;;;;41.35;17.30;;;;;;;0.69;100.00;99559.34;3545713;81;99439;-88
2022/01/31 18:56:45;;;;;;;40.85;18.02;;;;;;;0.67;100.00;99563.73;3546482;81;99314;-88
2022/01/31 19:01:46;;;;;;;38.48;17.70;;;;;;;0.66;100.00;99568.15;3542859;81;99349;-89
2022/01/31 19:06:47;;;;;;;40.55;18.12;;;;;;;0.66;100.00;99568.92;3523205;81;98895;-87
2022/01/31 19:11:51;;;;;;;38.13;18.33;;;;;;;0.63;100.00;99570.95;3549539;81;99231;-86
2022/01/31 19:16:51;;;;;;;43.15;20.30;;;;;;;0.56;100.00;99577.45;3527531;81;98789;-87
2022/01/31 19:21:52;;;;;;;54.70;24.43;;;;;;;0.52;100.00;99587.92;3503799;82;98792;-87
2022/01/31 19:26:54;;;;;;;58.03;27.57;;;;;;;0.49;100.00;99592.08;3506477;81;99165;-88
2022/01/31 19:31:56;;;;;;;65.42;32.03;;;;;;;0.42;100.00;99595.88;3514095;81;99170;-86
2022/01/31 19:36:57;;;;;;;51.40;27.07;;;;;;;0.39;100.00;99596.53;3498805;80;98939;-87
2022/01/31 19:47:17;;;;;;;50.80;26.90;;;;;;;0.30;100.00;99624.78;3510874;81;98524;-87
2022/01/31 19:52:18;;;;;;;51.43;27.10;;;;;;;0.24;100.00;99628.22;3509136;81;98998;-84
2022/01/31 19:57:19;;;;;;;50.45;26.45;;;;;;;0.22;100.00;99635.89;3514233;81;98242;-84
2022/01/31 20:02:20;;;;;;;50.77;25.87;;;;;;;0.20;100.00;99652.22;3505537;81;99380;-85
2022/01/31 20:07:22;;;;;;;47.80;23.77;;;;;;;0.19;100.00;99662.27;3511572;81;99209;-86
2022/01/31 20:12:23;;;;;;;45.43;22.07;;;;;;;0.21;100.00;99655.95;3506238;81;99194;-86
2022/01/31 20:17:24;;;;;;;47.50;21.10;;;;;;;0.23;100.00;99659.70;3509533;81;98798;-86
2022/01/31 20:22:25;;;;;;;46.90;20.23;;;;;;;0.25;100.00;99667.72;3503305;82;98739;-86
2022/01/31 20:27:26;;;;;;;53.60;27.17;;;;;;;0.28;100.00;99675.74;3502448;81;99032;-86
2022/01/31 20:32:27;;;;;;;60.87;32.07;;;;;;;0.28;100.00;99678.45;3511523;82;98896;-86
2022/01/31 20:37:36;;;;;;;58.60;29.37;;;;;;;0.28;100.00;99684.63;3504094;81;98875;-86
2022/01/31 20:42:36;;;;;;;59.00;28.27;;;;;;;0.26;100.00;99692.84;3500418;81;98785;-85
2022/01/31 20:47:36;;;;;;;48.00;26.50;;;;;;;0.25;100.00;99695.32;3494206;82;98982;-86
2022/01/31 20:52:37;;;;;;;55.13;25.83;;;;;;;0.21;100.00;99706.01;3506278;82;98526;-87
2022/01/31 20:57:40;;;;;;;40.90;20.77;;;;;;;0.16;100.00;99714.30;3497326;81;98814;-87
2022/01/31 21:02:41;;;;;;;49.90;20.75;;;;;;;0.10;100.00;99715.61;3511052;81;99365;-86
2022/01/31 21:07:44;;;;;;;46.03;21.07;;;;;;;0.05;100.00;99719.84;3503703;81;99152;-86
2022/01/31 21:12:46;;;;;;;45.15;21.10;;;;;;;-0.01;100.00;99718.44;3514057;81;99416;-86
2022/01/31 21:17:47;;;;;;;48.23;20.90;;;;;;;-0.10;100.00;99725.01;3501875;82;99531;-86
2022/01/31 21:22:48;;;;;;;44.23;18.70;;;;;;;-0.18;100.00;99741.26;3483851;83;26115;-86
2022/01/31 21:27:50;;;;;;;53.43;21.63;;;;;;;-0.26;100.00;99743.64;3511822;81;98850;-86
2022/01/31 21:32:52;;;;;;;61.05;23.20;;;;;;;-0.32;100.00;99748.76;3549284;82;98250;-87
2022/01/31 21:37:53;;;;;;;83.52;27.32;;;;;;;-0.42;100.00;99747.97;3513264;82;99312;-87
2022/01/31 21:42:54;;;;;;;78.97;27.87;;;;;;;-0.48;100.00;99749.02;3509082;81;99339;-86
2022/01/31 21:47:57;;;;;;;53.73;22.80;;;;;;;-0.56;100.00;99762.78;3487383;82;99523;-87
2022/01/31 21:52:57;;;;;;;49.42;20.02;;;;;;;-0.62;100.00;99771.39;3476222;83;32240;-87
2022/01/31 21:57:58;;;;;;;66.17;24.27;;;;;;;-0.68;100.00;99765.88;3435752;81;99216;-88
2022/01/31 22:02:59;;;;;;;61.13;23.30;;;;;;;-0.72;100.00;99764.95;3497983;82;99327;-87
2022/01/31 22:08:00;;;;;;;62.35;22.95;;;;;;;-0.79;100.00;99761.38;3485463;83;99379;-87
2022/01/31 22:13:01;;;;;;;48.50;19.57;;;;;;;-0.81;100.00;99765.50;3468281;81;98264;-87
2022/01/31 22:18:02;;;;;;;42.40;16.40;;;;;;;-0.86;100.00;99752.96;3490060;82;106795;-87
2022/01/31 22:23:03;;;;;;;45.92;16.67;;;;;;;-0.90;100.00;99762.00;3500058;82;26004;-87
2022/01/31 22:28:04;;;;;;;48.90;19.32;;;;;;;-0.94;100.00;99771.87;3504835;81;99494;-87
2022/01/31 22:33:07;;;;;;;38.33;15.77;;;;;;;-0.98;100.00;99777.66;3522042;81;99196;-87
2022/01/31 22:38:08;;;;;;;32.70;13.40;;;;;;;-1.00;100.00;99774.48;3518690;81;99386;-88
2022/01/31 22:43:09;;;;;;;30.23;11.07;;;;;;;-1.03;100.00;99771.86;3524724;81;99510;-88
2022/01/31 22:48:10;;;;;;;39.10;13.83;;;;;;;-1.04;100.00;99774.87;3513102;81;99105;-88
2022/01/31 22:53:11;;;;;;;37.30;14.50;;;;;;;-1.08;100.00;99787.41;3523408;81;26226;-87
2022/01/31 22:58:12;;;;;;;36.90;13.80;;;;;;;-1.09;100.00;99787.95;3505244;82;99141;-88
2022/01/31 23:03:13;;;;;;;30.00;11.50;;;;;;;-1.11;100.00;99791.53;3498045;82;99360;-87
2022/01/31 23:08:14;;;;;;;28.60;10.70;;;;;;;-1.12;100.00;99796.70;3490704;82;99442;-88
2022/01/31 23:13:15;;;;;;;29.60;11.60;;;;;;;-1.12;100.00;99799.94;3508595;81;99118;-89
2022/01/31 23:54:57;;;;;;;39.37;15.43;;;;;;;-1.05;100.00;99833.47;3499452;82;99643;-92
